Latest Weather Observations for Low Head

IDT60801

Issued at 2:35 pm EDT Tuesday 21 October 2014 (issued every 30 minutes, with the page automatically refreshed every 10 minutes)

About weather observations | Map of weather stations | Latest weather observations for TAS | Other Formats
Station Details ID: 091293 Name: LOW HEAD Lat: -41.05 Lon: 146.79 Height: 3.0 m
Data from the previous 72 hours. | See also: Recent months at Low Head
Date/Time
EDT
Temp
°C
App
Temp
°C
Dew
Point
Rel
Hum
%
Delta-T
°C
Wind Press
QNH
hPa
Press
MSL
hPa
Rain
since 9 am
mm
Dir
 
Spd
km/h
Gust
km/h
Spd
kts
Gust
kts
21/02:30pm 15.7 8.8 6.4 54 4.5 ENE 32 39 17 21 1031.1 - 0.0
21/02:00pm 15.8 9.2 6.2 53 4.6 NE 30 35 16 19 1031.7 - 0.0
21/01:30pm 15.7 8.7 5.8 51 4.8 ENE 32 39 17 21 1032.0 - 0.0
21/01:00pm 15.4 8.6 5.2 50 4.8 ENE 30 39 16 21 1032.3 - 0.0
21/12:30pm 15.1 9.3 6.3 55 4.3 ENE 26 32 14 17 1032.7 - 0.0
21/12:00pm 15.2 8.5 5.4 52 4.6 ENE 30 41 16 22 1033.0 1033.1 0.0
21/11:30am 14.7 8.3 5.0 52 4.5 ENE 28 39 15 21 1033.1 - 0.0
21/11:00am 14.3 7.5 5.3 54 4.2 ENE 30 35 16 19 1033.6 - 0.0
21/10:30am 14.2 7.7 4.6 52 4.4 ENE 28 35 15 19 1033.8 - 0.0
21/10:00am 14.0 8.0 5.4 56 4.0 E 26 37 14 20 1033.8 - 0.0
21/09:30am 12.9 7.9 4.8 58 3.7 E 20 28 11 15 1034.0 - 0.0
21/09:00am 11.5 7.2 5.1 65 2.9 SSE 17 20 9 11 1034.1 1034.1 0.0
21/08:30am 11.0 7.2 5.8 70 2.4 SSE 15 19 8 10 1034.1 - 0.0
21/08:00am 10.5 6.8 6.2 75 2.0 SSE 15 20 8 11 1033.9 - 0.0
21/07:30am 9.9 5.7 5.9 76 1.8 SSE 17 22 9 12 1033.5 - 0.0
21/07:00am 9.5 5.3 5.7 77 1.7 SSE 17 20 9 11 1033.2 - 0.0
21/06:30am 9.8 6.0 4.1 67 2.5 SE 13 17 7 9 1032.8 - 0.0
21/06:00am 9.3 6.0 4.8 73 2.0 SSE 11 15 6 8 1032.5 1032.6 0.0
21/05:30am 9.1 5.1 5.0 75 1.8 SSE 15 20 8 11 1032.6 - 0.0
21/05:00am 9.6 4.9 5.1 73 2.0 S 19 24 10 13 1032.7 - 0.0
21/04:30am 9.9 6.1 3.7 65 2.7 SE 13 19 7 10 1032.8 - 0.0
21/04:00am 9.5 4.9 3.7 67 2.5 ESE 17 24 9 13 1032.6 - 0.0
21/03:30am 9.1 4.0 4.3 72 2.1 E 20 26 11 14 1033.1 - 0.0
21/03:00am 8.9 4.4 4.3 73 2.0 ESE 17 24 9 13 1033.5 1033.5 0.0
21/02:30am 8.5 4.1 4.6 76 1.7 E 17 22 9 12 1033.4 - 0.0
21/02:00am 8.3 3.3 4.6 77 1.6 E 20 24 11 13 1033.6 - 0.0
21/01:30am 9.0 5.0 4.9 75 1.8 E 15 24 8 13 1034.0 - 0.0
21/01:00am 8.8 4.0 4.9 76 1.7 E 19 24 10 13 1034.1 - 0.0
21/12:30am 9.1 5.1 4.8 74 1.9 E 15 22 8 12 1034.3 - 0.0
21/12:00am 9.2 4.8 4.9 74 1.9 E 17 22 9 12 1034.5 1034.5 0.0
 
Date/Time
EDT
Temp
°C
App
Temp
°C
Dew
Point
Rel
Hum
%
Delta-T
°C
Wind Press
QNH
hPa
Press
MSL
hPa
Rain
since 9 am
mm
Dir
 
Spd
km/h
Gust
km/h
Spd
kts
Gust
kts
20/11:30pm 8.9 4.5 4.8 75 1.8 E 17 20 9 11 1034.7 - 0.0
20/11:00pm 9.1 4.3 4.8 74 1.9 E 19 24 10 13 1034.7 - 0.0
20/10:30pm 9.9 5.5 5.0 71 2.2 E 17 20 9 11 1034.8 - 0.0
20/10:00pm 9.8 5.4 4.8 71 2.2 E 17 20 9 11 1034.8 - 0.0
20/09:30pm 10.4 6.1 5.3 70 2.3 E 17 20 9 11 1034.7 - 0.0
20/09:00pm 10.6 6.7 5.3 70 2.4 E 15 17 8 9 1034.5 1034.5 0.0
20/08:30pm 11.8 7.6 5.7 66 2.8 E 17 20 9 11 1034.1 - 0.0
20/08:00pm 12.6 7.8 5.4 61 3.3 NE 20 24 11 13 1033.8 - 0.0
20/07:30pm 12.5 8.4 4.2 57 3.8 NE 15 19 8 10 1033.6 - 0.0
20/07:00pm 12.8 8.2 3.5 53 4.2 NNE 17 20 9 11 1033.3 - 0.0
20/06:30pm 13.0 9.2 2.0 47 4.8 NNE 11 15 6 8 1033.1 - 0.0
20/06:00pm 13.2 9.1 2.3 47 4.7 NNE 13 17 7 9 1033.2 1033.2 0.0
20/05:30pm 12.8 8.3 2.1 48 4.6 N 15 17 8 9 1033.3 - 0.0
20/05:00pm 13.2 8.9 3.2 50 4.5 NNE 15 19 8 10 1033.2 - 0.0
20/04:30pm 13.1 8.0 3.1 50 4.4 NNE 19 24 10 13 1033.2 - 0.0
20/04:00pm 13.2 7.9 2.9 49 4.6 NNE 20 24 11 13 1033.1 - 0.0
20/03:30pm 12.9 7.5 2.5 49 4.5 NNE 20 24 11 13 1033.3 - 0.0
20/03:00pm 13.1 6.9 2.2 47 4.7 N 24 30 13 16 1033.4 1033.4 0.0
20/02:30pm 12.7 6.4 1.3 45 4.8 N 24 26 13 14 1033.6 - 0.0
20/02:00pm 13.3 7.4 1.5 44 5.1 N 22 24 12 13 1033.7 - 0.0
20/01:30pm 14.3 8.6 -1.0 35 6.3 N 19 20 10 11 1034.1 - 0.0
20/01:00pm 12.9 7.4 0.9 44 5.1 N 19 22 10 12 1034.2 - 0.0
20/12:30pm 12.9 8.0 1.9 47 4.7 N 17 24 9 13 1034.2 - 0.0
20/12:00pm 12.9 7.3 1.3 45 4.9 S 20 28 11 15 1034.2 1034.2 0.0
20/11:30am 12.1 5.2 0.4 44 4.8 S 26 32 14 17 1034.1 - 0.0
20/11:00am 12.0 5.5 0.6 45 4.7 S 24 32 13 17 1034.3 - 0.0
20/10:30am 11.5 4.9 -0.2 44 4.7 SSE 24 33 13 18 1034.2 - 0.0
20/10:00am 10.9 3.6 0.2 47 4.4 SSE 28 37 15 20 1034.1 - 0.0
20/09:30am 10.4 3.7 1.4 53 3.7 SSE 26 39 14 21 1033.7 - 0.0
20/09:00am 9.8 4.9 1.8 57 3.3 SSE 17 30 9 16 1033.4 1033.5 0.0
20/08:30am 8.5 4.9 2.8 67 2.4 S 11 17 6 9 1033.4 - 0.0
20/08:00am 7.6 3.5 2.2 68 2.2 SSE 13 17 7 9 1033.0 - 0.0
20/07:30am 6.3 2.6 2.6 77 1.5 SE 11 15 6 8 1032.4 - 0.0
20/07:00am 6.2 1.8 0.5 67 2.2 SE 13 15 7 8 1032.0 - 0.0
20/06:30am 6.2 2.5 0.2 65 2.3 SE 9 11 5 6 1031.8 - 0.0
20/06:00am 6.1 2.5 0.4 67 2.2 SE 9 11 5 6 1031.5 1031.5 0.0
20/05:30am 5.9 1.8 -0.2 65 2.3 SE 11 15 6 8 1030.9 - 0.0
20/05:00am 6.5 2.5 0.3 64 2.4 ESE 11 15 6 8 1030.4 - 0.0
20/04:30am 6.5 3.5 0.6 66 2.3 SE 6 13 3 7 1029.9 - 0.0
20/04:00am 6.5 2.5 0.6 66 2.3 S 11 15 6 8 1029.8 - 0.0
20/03:30am 6.9 3.3 0.5 64 2.5 SSE 9 13 5 7 1029.5 - 0.0
20/03:00am 7.9 2.8 0.9 61 2.8 S 17 22 9 12 1029.3 1029.3 0.0
20/02:30am 9.2 3.9 -0.5 50 3.8 S 17 24 9 13 1028.9 - 0.0
20/02:00am 9.4 3.1 1.6 58 3.2 SSW 24 28 13 15 1028.3 - 0.0
20/01:30am 9.7 3.3 1.1 55 3.5 S 24 28 13 15 1027.9 - 0.0
20/01:00am 10.1 3.1 1.7 56 3.5 S 28 33 15 18 1027.4 - 0.0
20/12:30am 10.3 4.3 3.4 62 3.0 SSW 24 32 13 17 1027.0 - 0.0
20/12:00am 10.6 5.2 4.5 66 2.7 SSW 22 26 12 14 1026.7 1026.7 0.0
 
Date/Time
EDT
Temp
°C
App
Temp
°C
Dew
Point
Rel
Hum
%
Delta-T
°C
Wind Press
QNH
hPa
Press
MSL
hPa
Rain
since 9 am
mm
Dir
 
Spd
km/h
Gust
km/h
Spd
kts
Gust
kts
19/11:30pm 11.0 4.6 5.0 66 2.7 SSW 28 32 15 17 1025.6 - 0.0
19/11:00pm 11.3 4.9 5.1 65 2.8 SW 28 32 15 17 1025.0 - 0.0
19/10:30pm 11.5 5.0 4.9 64 3.0 SW 28 33 15 18 1024.4 - 0.0
19/10:00pm 12.0 6.4 5.2 63 3.1 SW 24 28 13 15 1023.6 - 0.0
19/09:30pm 12.4 5.1 5.5 63 3.2 SW 33 43 18 23 1022.7 - 0.0
19/09:00pm 12.9 6.6 5.6 61 3.4 SW 28 39 15 21 1021.6 1021.6 0.0
19/08:30pm 13.2 5.7 6.2 62 3.3 WSW 35 43 19 23 1020.7 - 0.0
19/08:00pm 13.5 5.5 7.3 66 3.0 WSW 39 44 21 24 1019.9 - 0.0
19/07:30pm 13.7 7.0 8.0 68 2.8 WSW 33 39 18 21 1019.3 - 0.0
19/07:00pm 14.0 6.1 7.9 66 3.0 WSW 39 46 21 25 1018.7 - 0.0
19/06:30pm 14.7 5.7 9.0 68 2.9 W 46 54 25 29 1018.0 - 0.0
19/06:00pm 15.7 8.3 9.7 67 3.1 WSW 39 46 21 25 1017.1 1017.0 0.0
19/05:30pm 16.0 9.5 10.3 69 3.0 W 35 39 19 21 1016.5 - 0.0
19/05:00pm 16.4 8.9 10.8 69 3.0 WSW 41 46 22 25 1016.1 - 0.0
19/04:36pm 16.5 9.9 11.5 72 2.7 W 37 43 20 23 1015.9 - 0.0
19/04:30pm 15.7 11.1 12.2 80 1.9 WNW 28 33 15 18 1016.0 - 0.0
19/04:00pm 15.8 10.5 12.5 81 1.8 WNW 32 39 17 21 1015.2 - 0.0
19/03:30pm 16.6 10.8 12.6 77 2.2 NW 35 44 19 24 1015.0 - 0.0
19/03:00pm 17.1 11.3 12.8 76 2.4 WNW 35 39 19 21 1015.4 1015.4 0.0
19/02:30pm 16.7 11.0 12.9 78 2.1 NW 35 43 19 23 1015.7 - 0.0
19/02:00pm 16.1 10.4 13.0 82 1.7 NW 35 43 19 23 1016.1 - 0.0
19/01:30pm 16.6 11.5 13.2 80 1.9 WNW 32 39 17 21 1016.6 - 0.0
19/01:00pm 16.2 11.5 13.1 82 1.7 NW 30 37 16 20 1016.5 - 0.0
19/12:30pm 16.1 11.4 13.2 83 1.6 NW 30 35 16 19 1016.3 - 0.0
19/12:00pm 15.3 10.5 12.9 85 1.3 NW 30 35 16 19 1016.7 1016.7 0.0
19/11:30am 15.9 11.1 13.0 83 1.6 NW 30 33 16 18 1017.0 - 0.0
19/11:00am 15.9 12.0 13.2 84 1.5 WNW 26 32 14 17 1017.7 - 0.0
19/10:30am 15.3 11.3 13.1 87 1.2 WNW 26 30 14 16 1017.4 - 0.0
19/10:00am 14.7 13.3 12.3 85 1.3 WNW 11 22 6 12 1017.5 - 0.0
19/09:30am 14.8 13.1 12.6 87 1.2 NW 13 15 7 8 1017.5 - 0.0
19/09:00am 14.8 12.4 12.8 88 1.1 WNW 17 20 9 11 1017.4 1017.4 0.0
19/08:30am 14.4 12.2 12.2 87 1.2 NNW 15 17 8 9 1017.2 - 0.0
19/08:00am 14.5 13.3 12.7 89 1.0 NW 11 13 6 7 1016.9 - 0.0
19/07:30am 14.2 12.1 12.4 89 1.0 NNW 15 17 8 9 1016.9 - 0.0
19/07:00am 14.2 11.2 12.0 87 1.2 NNE 19 22 10 12 1016.9 - 0.0
19/06:30am 14.0 9.9 11.4 84 1.4 NE 24 28 13 15 1016.6 - 0.0
19/06:00am 13.5 9.9 10.6 82 1.5 ENE 20 30 11 16 1016.2 1016.2 0.0
19/05:30am 13.4 9.1 10.7 84 1.4 ENE 24 28 13 15 1016.4 - 0.0
19/05:00am 13.1 8.4 10.6 85 1.3 ENE 26 30 14 16 1016.3 - 0.0
19/04:30am 12.5 8.8 10.2 86 1.2 E 20 26 11 14 1017.0 - 0.0
19/04:00am 11.4 8.4 9.4 87 1.0 E 15 20 8 11 1017.8 - 0.0
19/03:30am 11.9 9.5 9.9 87 1.0 E 13 17 7 9 1018.2 - 0.0
19/03:00am 11.2 9.4 9.4 89 0.9 SSE 9 11 5 6 1018.6 1018.6 0.0
19/02:30am 11.5 9.8 9.9 90 0.8 SE 9 15 5 8 1018.9 - 0.0
19/02:00am 10.8 8.7 9.6 92 0.6 SSE 11 15 6 8 1019.3 - 0.0
19/01:30am 11.5 8.7 10.1 91 0.7 SE 15 19 8 10 1019.6 - 0.0
19/01:00am 12.3 10.1 10.8 90 0.8 E 13 17 7 9 1020.1 - 0.0
19/12:30am 12.7 10.6 11.2 91 0.8 E 13 17 7 9 1020.8 - 0.0
19/12:00am 13.0 10.6 11.5 91 0.8 ENE 15 19 8 10 1020.7 1020.7 0.0
 
Date/Time
EDT
Temp
°C
App
Temp
°C
Dew
Point
Rel
Hum
%
Delta-T
°C
Wind Press
QNH
hPa
Press
MSL
hPa
Rain
since 9 am
mm
Dir
 
Spd
km/h
Gust
km/h
Spd
kts
Gust
kts
18/11:30pm 13.2 10.4 11.5 89 0.9 E 17 20 9 11 1020.8 - 0.0
18/11:00pm 13.3 10.0 11.6 89 0.9 ENE 20 24 11 13 1021.0 - 0.0
18/10:30pm 13.3 9.9 11.4 88 1.0 ENE 20 24 11 13 1021.6 - 0.0
18/10:00pm 13.5 9.1 11.6 88 1.0 ENE 26 28 14 15 1021.6 - 0.0
18/09:30pm 13.4 8.5 11.3 87 1.1 ENE 28 32 15 17 1021.8 - 0.0
18/09:00pm 13.0 9.6 10.7 86 1.2 E 19 24 10 13 1022.0 1022.1 0.0
18/08:30pm 13.4 10.5 10.9 85 1.3 ENE 17 20 9 11 1022.6 - 0.0
18/08:00pm 13.5 10.2 10.8 84 1.4 ENE 19 22 10 12 1022.6 - 0.0
18/07:30pm 13.6 10.6 10.7 82 1.5 NNE 17 19 9 10 1023.3 - 0.0
18/07:00pm 13.5 11.2 10.4 81 1.6 NNE 13 15 7 8 1023.6 - 0.0
18/06:30pm 13.7 11.8 10.6 81 1.6 NE 11 15 6 8 1023.1 - 0.0
18/06:00pm 13.6 10.0 10.7 82 1.5 ENE 20 22 11 12 1022.6 1022.6 0.0
18/05:30pm 13.9 11.9 10.2 78 1.9 NE 11 11 6 6 1023.7 - 0.0
18/05:00pm 14.1 11.9 9.4 73 2.4 NE 11 13 6 7 1023.7 - 0.0
18/04:30pm 14.3 11.4 9.6 73 2.4 NE 15 17 8 9 1023.4 - 0.0
18/04:00pm 14.4 11.4 9.3 71 2.6 ENE 15 15 8 8 1023.6 - 0.0
18/03:30pm 14.6 12.7 9.1 69 2.8 NNE 9 13 5 7 1024.4 - 0.0
18/03:00pm 14.7 11.5 8.5 66 3.1 NNE 15 17 8 9 1025.0 1025.0 0.0

Other Formats:

Comma delimited format used in spreadsheet applications
http://www.bom.gov.au/fwo/IDT60801/IDT60801.95964.axf

JavaScript Object Notation format (JSON) in row-major order
http://www.bom.gov.au/fwo/IDT60801/IDT60801.95964.json